sensor_id;sensor_type;location;lat;lon;timestamp;P1;durP1;ratioP1;P2;durP2;ratioP2
17714;SDS011;8977;50.902;4.314;2022-07-23T00:01:29;11.82;;;10.63;;
17714;SDS011;8977;50.902;4.314;2022-07-23T00:03:56;12.85;;;10.90;;
17714;SDS011;8977;50.902;4.314;2022-07-23T00:06:23;11.95;;;10.70;;
17714;SDS011;8977;50.902;4.314;2022-07-23T00:08:51;11.32;;;9.98;;
17714;SDS011;8977;50.902;4.314;2022-07-23T00:11:18;12.90;;;10.98;;
17714;SDS011;8977;50.902;4.314;2022-07-23T00:13:47;13.18;;;11.10;;
17714;SDS011;8977;50.902;4.314;2022-07-23T00:16:15;13.68;;;11.18;;
17714;SDS011;8977;50.902;4.314;2022-07-23T00:18:42;12.93;;;10.85;;
17714;SDS011;8977;50.902;4.314;2022-07-23T00:21:09;12.40;;;10.52;;
17714;SDS011;8977;50.902;4.314;2022-07-23T00:23:36;11.93;;;10.73;;
17714;SDS011;8977;50.902;4.314;2022-07-23T00:26:03;14.27;;;11.05;;
17714;SDS011;8977;50.902;4.314;2022-07-23T00:28:32;12.52;;;10.80;;
17714;SDS011;8977;50.902;4.314;2022-07-23T00:31:01;12.25;;;10.88;;
17714;SDS011;8977;50.902;4.314;2022-07-23T00:33:29;11.93;;;10.75;;
17714;SDS011;8977;50.902;4.314;2022-07-23T00:35:57;12.23;;;10.98;;
17714;SDS011;8977;50.902;4.314;2022-07-23T00:38:23;12.70;;;10.88;;
17714;SDS011;8977;50.902;4.314;2022-07-23T00:40:50;13.07;;;10.80;;
17714;SDS011;8977;50.902;4.314;2022-07-23T00:43:19;14.68;;;11.15;;
17714;SDS011;8977;50.902;4.314;2022-07-23T00:45:46;12.60;;;10.75;;
17714;SDS011;8977;50.902;4.314;2022-07-23T00:48:13;12.50;;;11.05;;
17714;SDS011;8977;50.902;4.314;2022-07-23T00:50:41;12.68;;;11.38;;
17714;SDS011;8977;50.902;4.314;2022-07-23T00:53:08;13.93;;;11.15;;
17714;SDS011;8977;50.902;4.314;2022-07-23T00:55:36;11.82;;;10.48;;
17714;SDS011;8977;50.902;4.314;2022-07-23T00:58:03;12.98;;;11.68;;
17714;SDS011;8977;50.902;4.314;2022-07-23T01:00:31;13.18;;;11.80;;
17714;SDS011;8977;50.902;4.314;2022-07-23T01:02:58;12.40;;;10.80;;
17714;SDS011;8977;50.902;4.314;2022-07-23T01:05:25;12.90;;;11.52;;
17714;SDS011;8977;50.902;4.314;2022-07-23T01:07:53;14.43;;;11.50;;
17714;SDS011;8977;50.902;4.314;2022-07-23T01:10:20;14.60;;;10.85;;
17714;SDS011;8977;50.902;4.314;2022-07-23T01:13:00;12.75;;;10.90;;
17714;SDS011;8977;50.902;4.314;2022-07-23T01:15:28;12.32;;;11.02;;
17714;SDS011;8977;50.902;4.314;2022-07-23T01:17:56;14.18;;;11.93;;
17714;SDS011;8977;50.902;4.314;2022-07-23T01:20:23;12.02;;;10.73;;
17714;SDS011;8977;50.902;4.314;2022-07-23T01:22:51;12.70;;;11.38;;
17714;SDS011;8977;50.902;4.314;2022-07-23T01:25:19;13.88;;;12.15;;
17714;SDS011;8977;50.902;4.314;2022-07-23T01:27:46;16.25;;;12.07;;
17714;SDS011;8977;50.902;4.314;2022-07-23T01:30:13;12.65;;;11.25;;
17714;SDS011;8977;50.902;4.314;2022-07-23T01:32:40;11.68;;;10.50;;
17714;SDS011;8977;50.902;4.314;2022-07-23T01:35:08;13.93;;;11.93;;
17714;SDS011;8977;50.902;4.314;2022-07-23T01:37:35;13.75;;;11.65;;
17714;SDS011;8977;50.902;4.314;2022-07-23T01:40:05;13.63;;;11.93;;
17714;SDS011;8977;50.902;4.314;2022-07-23T01:42:32;13.25;;;11.30;;
17714;SDS011;8977;50.902;4.314;2022-07-23T01:44:59;12.95;;;11.63;;
17714;SDS011;8977;50.902;4.314;2022-07-23T01:47:26;12.90;;;10.80;;
17714;SDS011;8977;50.902;4.314;2022-07-23T01:49:52;13.20;;;10.85;;
17714;SDS011;8977;50.902;4.314;2022-07-23T01:52:19;12.98;;;10.88;;
17714;SDS011;8977;50.902;4.314;2022-07-23T01:54:46;12.63;;;11.25;;
17714;SDS011;8977;50.902;4.314;2022-07-23T01:57:14;12.77;;;10.93;;
17714;SDS011;8977;50.902;4.314;2022-07-23T01:59:42;13.00;;;11.65;;
17714;SDS011;8977;50.902;4.314;2022-07-23T02:02:09;13.18;;;11.35;;
17714;SDS011;8977;50.902;4.314;2022-07-23T02:04:35;14.63;;;10.80;;
17714;SDS011;8977;50.902;4.314;2022-07-23T02:07:03;12.77;;;11.48;;
17714;SDS011;8977;50.902;4.314;2022-07-23T02:09:30;13.52;;;10.85;;
17714;SDS011;8977;50.902;4.314;2022-07-23T02:11:57;11.80;;;10.70;;
17714;SDS011;8977;50.902;4.314;2022-07-23T02:14:25;12.43;;;11.25;;
17714;SDS011;8977;50.902;4.314;2022-07-23T02:16:53;14.25;;;10.48;;
17714;SDS011;8977;50.902;4.314;2022-07-23T02:19:20;12.48;;;11.32;;
17714;SDS011;8977;50.902;4.314;2022-07-23T02:21:47;12.95;;;11.60;;
17714;SDS011;8977;50.902;4.314;2022-07-23T02:24:14;12.88;;;11.57;;
17714;SDS011;8977;50.902;4.314;2022-07-23T02:26:41;14.45;;;10.85;;
17714;SDS011;8977;50.902;4.314;2022-07-23T02:29:08;12.55;;;11.20;;
17714;SDS011;8977;50.902;4.314;2022-07-23T02:31:36;15.05;;;11.15;;
17714;SDS011;8977;50.902;4.314;2022-07-23T02:34:03;12.95;;;11.40;;
17714;SDS011;8977;50.902;4.314;2022-07-23T02:36:30;11.93;;;10.77;;
17714;SDS011;8977;50.902;4.314;2022-07-23T02:38:57;14.57;;;11.93;;
17714;SDS011;8977;50.902;4.314;2022-07-23T02:41:24;12.10;;;10.75;;
17714;SDS011;8977;50.902;4.314;2022-07-23T02:43:51;13.52;;;10.75;;
17714;SDS011;8977;50.902;4.314;2022-07-23T02:46:17;12.00;;;10.80;;
17714;SDS011;8977;50.902;4.314;2022-07-23T02:48:46;13.60;;;11.52;;
17714;SDS011;8977;50.902;4.314;2022-07-23T02:51:13;12.25;;;10.80;;
17714;SDS011;8977;50.902;4.314;2022-07-23T02:53:40;12.52;;;11.32;;
17714;SDS011;8977;50.902;4.314;2022-07-23T02:56:07;12.40;;;11.18;;
17714;SDS011;8977;50.902;4.314;2022-07-23T02:58:34;12.80;;;11.07;;
17714;SDS011;8977;50.902;4.314;2022-07-23T03:01:01;12.32;;;10.73;;
17714;SDS011;8977;50.902;4.314;2022-07-23T03:03:28;12.15;;;10.88;;
17714;SDS011;8977;50.902;4.314;2022-07-23T03:05:57;11.68;;;10.48;;
17714;SDS011;8977;50.902;4.314;2022-07-23T03:08:24;12.20;;;10.95;;
17714;SDS011;8977;50.902;4.314;2022-07-23T03:10:51;12.30;;;11.00;;
17714;SDS011;8977;50.902;4.314;2022-07-23T03:13:17;11.80;;;10.60;;
17714;SDS011;8977;50.902;4.314;2022-07-23T03:15:44;12.65;;;11.35;;
17714;SDS011;8977;50.902;4.314;2022-07-23T03:18:11;13.60;;;10.75;;
17714;SDS011;8977;50.902;4.314;2022-07-23T03:20:38;13.98;;;10.55;;
17714;SDS011;8977;50.902;4.314;2022-07-23T03:23:06;12.75;;;11.20;;
17714;SDS011;8977;50.902;4.314;2022-07-23T03:25:33;11.85;;;10.63;;
17714;SDS011;8977;50.902;4.314;2022-07-23T03:28:00;12.13;;;10.93;;
17714;SDS011;8977;50.902;4.314;2022-07-23T03:30:27;12.00;;;10.13;;
17714;SDS011;8977;50.902;4.314;2022-07-23T03:32:54;12.40;;;11.10;;
17714;SDS011;8977;50.902;4.314;2022-07-23T03:35:21;14.18;;;11.43;;
17714;SDS011;8977;50.902;4.314;2022-07-23T03:37:48;12.43;;;10.93;;
17714;SDS011;8977;50.902;4.314;2022-07-23T03:40:16;12.55;;;10.93;;
17714;SDS011;8977;50.902;4.314;2022-07-23T03:42:43;13.23;;;11.07;;
17714;SDS011;8977;50.902;4.314;2022-07-23T03:45:12;12.85;;;11.18;;
17714;SDS011;8977;50.902;4.314;2022-07-23T03:47:39;13.18;;;11.45;;
17714;SDS011;8977;50.902;4.314;2022-07-23T03:50:06;12.15;;;10.95;;
17714;SDS011;8977;50.902;4.314;2022-07-23T03:52:33;14.13;;;11.02;;
17714;SDS011;8977;50.902;4.314;2022-07-23T03:55:00;12.73;;;11.43;;
17714;SDS011;8977;50.902;4.314;2022-07-23T03:57:29;13.75;;;11.27;;
17714;SDS011;8977;50.902;4.314;2022-07-23T03:59:56;13.55;;;10.52;;
17714;SDS011;8977;50.902;4.314;2022-07-23T04:02:23;11.23;;;10.13;;
17714;SDS011;8977;50.902;4.314;2022-07-23T04:04:50;12.25;;;10.50;;
17714;SDS011;8977;50.902;4.314;2022-07-23T04:07:17;11.00;;;9.90;;
17714;SDS011;8977;50.902;4.314;2022-07-23T04:09:44;12.57;;;9.80;;
17714;SDS011;8977;50.902;4.314;2022-07-23T04:12:11;13.63;;;10.48;;
17714;SDS011;8977;50.902;4.314;2022-07-23T04:14:39;11.55;;;10.07;;
17714;SDS011;8977;50.902;4.314;2022-07-23T04:17:06;12.25;;;10.55;;
17714;SDS011;8977;50.902;4.314;2022-07-23T04:19:33;11.27;;;10.18;;
17714;SDS011;8977;50.902;4.314;2022-07-23T04:22:01;11.85;;;10.63;;
17714;SDS011;8977;50.902;4.314;2022-07-23T04:24:28;11.48;;;9.43;;
17714;SDS011;8977;50.902;4.314;2022-07-23T04:26:55;11.55;;;10.05;;
17714;SDS011;8977;50.902;4.314;2022-07-23T04:29:21;10.60;;;9.65;;
17714;SDS011;8977;50.902;4.314;2022-07-23T04:31:50;11.80;;;10.00;;
17714;SDS011;8977;50.902;4.314;2022-07-23T04:34:17;11.20;;;10.05;;
17714;SDS011;8977;50.902;4.314;2022-07-23T04:36:44;12.23;;;10.10;;
17714;SDS011;8977;50.902;4.314;2022-07-23T04:39:11;13.70;;;10.45;;
17714;SDS011;8977;50.902;4.314;2022-07-23T04:41:38;10.63;;;9.63;;
17714;SDS011;8977;50.902;4.314;2022-07-23T04:44:05;12.52;;;10.52;;
17714;SDS011;8977;50.902;4.314;2022-07-23T04:46:32;12.38;;;10.60;;
17714;SDS011;8977;50.902;4.314;2022-07-23T04:49:00;11.93;;;10.13;;
17714;SDS011;8977;50.902;4.314;2022-07-23T04:51:27;11.55;;;10.35;;
17714;SDS011;8977;50.902;4.314;2022-07-23T04:53:54;12.02;;;10.82;;
17714;SDS011;8977;50.902;4.314;2022-07-23T04:56:21;11.57;;;10.40;;
17714;SDS011;8977;50.902;4.314;2022-07-23T04:58:48;10.68;;;9.68;;
17714;SDS011;8977;50.902;4.314;2022-07-23T05:01:15;11.10;;;10.00;;
17714;SDS011;8977;50.902;4.314;2022-07-23T05:03:42;12.23;;;10.95;;
17714;SDS011;8977;50.902;4.314;2022-07-23T05:06:10;11.88;;;10.30;;
17714;SDS011;8977;50.902;4.314;2022-07-23T05:08:37;11.68;;;10.45;;
17714;SDS011;8977;50.902;4.314;2022-07-23T05:11:04;11.93;;;10.77;;
17714;SDS011;8977;50.902;4.314;2022-07-23T05:13:31;13.05;;;11.15;;
17714;SDS011;8977;50.902;4.314;2022-07-23T05:15:58;11.98;;;10.63;;
17714;SDS011;8977;50.902;4.314;2022-07-23T05:18:25;13.55;;;10.75;;
17714;SDS011;8977;50.902;4.314;2022-07-23T05:20:52;11.82;;;10.63;;
17714;SDS011;8977;50.902;4.314;2022-07-23T05:23:20;12.48;;;11.15;;
17714;SDS011;8977;50.902;4.314;2022-07-23T05:25:47;12.15;;;10.77;;
17714;SDS011;8977;50.902;4.314;2022-07-23T05:28:15;11.65;;;10.45;;
17714;SDS011;8977;50.902;4.314;2022-07-23T05:30:41;12.15;;;10.45;;
17714;SDS011;8977;50.902;4.314;2022-07-23T05:33:08;12.55;;;10.68;;
17714;SDS011;8977;50.902;4.314;2022-07-23T05:35:35;15.50;;;12.57;;
17714;SDS011;8977;50.902;4.314;2022-07-23T05:38:02;14.15;;;11.40;;
17714;SDS011;8977;50.902;4.314;2022-07-23T05:40:30;13.50;;;12.10;;
17714;SDS011;8977;50.902;4.314;2022-07-23T05:42:58;13.98;;;11.75;;
17714;SDS011;8977;50.902;4.314;2022-07-23T05:45:25;15.23;;;11.25;;
17714;SDS011;8977;50.902;4.314;2022-07-23T05:47:52;13.18;;;10.80;;
17714;SDS011;8977;50.902;4.314;2022-07-23T05:50:19;15.55;;;11.60;;
17714;SDS011;8977;50.902;4.314;2022-07-23T05:52:46;13.18;;;11.43;;
17714;SDS011;8977;50.902;4.314;2022-07-23T05:55:13;11.85;;;10.65;;
17714;SDS011;8977;50.902;4.314;2022-07-23T05:57:41;11.93;;;10.65;;
17714;SDS011;8977;50.902;4.314;2022-07-23T06:00:08;13.60;;;10.98;;
17714;SDS011;8977;50.902;4.314;2022-07-23T06:02:37;12.93;;;10.90;;
17714;SDS011;8977;50.902;4.314;2022-07-23T06:05:04;11.57;;;10.48;;
17714;SDS011;8977;50.902;4.314;2022-07-23T06:07:32;12.02;;;10.73;;
17714;SDS011;8977;50.902;4.314;2022-07-23T06:09:59;13.77;;;11.05;;
17714;SDS011;8977;50.902;4.314;2022-07-23T06:12:26;12.60;;;10.48;;
17714;SDS011;8977;50.902;4.314;2022-07-23T06:14:54;11.75;;;10.43;;
17714;SDS011;8977;50.902;4.314;2022-07-23T06:17:21;12.15;;;10.70;;
17714;SDS011;8977;50.902;4.314;2022-07-23T06:19:48;11.65;;;10.45;;
17714;SDS011;8977;50.902;4.314;2022-07-23T06:22:15;11.68;;;10.43;;
17714;SDS011;8977;50.902;4.314;2022-07-23T06:24:42;12.52;;;10.95;;
17714;SDS011;8977;50.902;4.314;2022-07-23T06:27:09;12.35;;;11.07;;
17714;SDS011;8977;50.902;4.314;2022-07-23T06:29:36;11.88;;;10.60;;
17714;SDS011;8977;50.902;4.314;2022-07-23T06:32:05;13.13;;;11.45;;
17714;SDS011;8977;50.902;4.314;2022-07-23T06:34:32;11.98;;;10.27;;
17714;SDS011;8977;50.902;4.314;2022-07-23T06:36:59;13.35;;;10.40;;
17714;SDS011;8977;50.902;4.314;2022-07-23T06:39:26;14.30;;;10.75;;
17714;SDS011;8977;50.902;4.314;2022-07-23T06:41:53;12.02;;;10.43;;
17714;SDS011;8977;50.902;4.314;2022-07-23T06:44:20;10.52;;;9.45;;
17714;SDS011;8977;50.902;4.314;2022-07-23T06:46:47;12.75;;;11.35;;
17714;SDS011;8977;50.902;4.314;2022-07-23T06:49:15;14.15;;;10.65;;
17714;SDS011;8977;50.902;4.314;2022-07-23T06:51:42;12.43;;;10.07;;
17714;SDS011;8977;50.902;4.314;2022-07-23T06:54:09;14.15;;;11.35;;
17714;SDS011;8977;50.902;4.314;2022-07-23T06:56:36;13.15;;;10.95;;
17714;SDS011;8977;50.902;4.314;2022-07-23T06:59:03;11.88;;;10.60;;
17714;SDS011;8977;50.902;4.314;2022-07-23T07:01:30;12.73;;;10.85;;
17714;SDS011;8977;50.902;4.314;2022-07-23T07:03:57;14.70;;;11.48;;
17714;SDS011;8977;50.902;4.314;2022-07-23T07:06:25;13.48;;;12.05;;
17714;SDS011;8977;50.902;4.314;2022-07-23T07:08:52;13.68;;;10.70;;
17714;SDS011;8977;50.902;4.314;2022-07-23T07:11:19;11.60;;;10.25;;
17714;SDS011;8977;50.902;4.314;2022-07-23T07:13:46;11.95;;;9.82;;
17714;SDS011;8977;50.902;4.314;2022-07-23T07:16:13;13.63;;;10.38;;
17714;SDS011;8977;50.902;4.314;2022-07-23T07:18:40;12.65;;;10.90;;
17714;SDS011;8977;50.902;4.314;2022-07-23T07:21:07;12.98;;;11.02;;
17714;SDS011;8977;50.902;4.314;2022-07-23T07:23:35;12.98;;;10.00;;
17714;SDS011;8977;50.902;4.314;2022-07-23T07:26:02;10.82;;;9.65;;
17714;SDS011;8977;50.902;4.314;2022-07-23T07:28:29;16.20;;;10.88;;
17714;SDS011;8977;50.902;4.314;2022-07-23T07:30:56;13.20;;;11.32;;
17714;SDS011;8977;50.902;4.314;2022-07-23T07:33:23;12.02;;;10.13;;
17714;SDS011;8977;50.902;4.314;2022-07-23T07:35:50;13.13;;;9.95;;
17714;SDS011;8977;50.902;4.314;2022-07-23T07:38:16;11.27;;;9.13;;
17714;SDS011;8977;50.902;4.314;2022-07-23T07:40:45;9.75;;;8.75;;
17714;SDS011;8977;50.902;4.314;2022-07-23T07:43:12;10.75;;;9.52;;
17714;SDS011;8977;50.902;4.314;2022-07-23T07:45:39;9.73;;;8.65;;
17714;SDS011;8977;50.902;4.314;2022-07-23T07:48:06;11.90;;;10.70;;
17714;SDS011;8977;50.902;4.314;2022-07-23T07:50:33;11.70;;;9.85;;
17714;SDS011;8977;50.902;4.314;2022-07-23T07:53:00;11.05;;;9.93;;
17714;SDS011;8977;50.902;4.314;2022-07-23T07:55:26;10.75;;;9.60;;
17714;SDS011;8977;50.902;4.314;2022-07-23T07:57:55;11.95;;;9.65;;
17714;SDS011;8977;50.902;4.314;2022-07-23T08:00:22;10.15;;;9.15;;
17714;SDS011;8977;50.902;4.314;2022-07-23T08:02:50;15.75;;;8.82;;
17714;SDS011;8977;50.902;4.314;2022-07-23T08:05:18;9.60;;;8.63;;
17714;SDS011;8977;50.902;4.314;2022-07-23T08:07:46;11.52;;;8.82;;
17714;SDS011;8977;50.902;4.314;2022-07-23T08:10:14;11.20;;;8.50;;
17714;SDS011;8977;50.902;4.314;2022-07-23T08:12:41;10.27;;;8.20;;
17714;SDS011;8977;50.902;4.314;2022-07-23T08:15:11;8.70;;;7.80;;
17714;SDS011;8977;50.902;4.314;2022-07-23T08:17:38;8.48;;;7.22;;
17714;SDS011;8977;50.902;4.314;2022-07-23T08:20:06;8.10;;;7.07;;
17714;SDS011;8977;50.902;4.314;2022-07-23T08:22:44;7.78;;;6.60;;
17714;SDS011;8977;50.902;4.314;2022-07-23T08:25:12;8.65;;;7.18;;
17714;SDS011;8977;50.902;4.314;2022-07-23T08:27:40;10.13;;;7.65;;
17714;SDS011;8977;50.902;4.314;2022-07-23T08:30:07;10.85;;;7.03;;
17714;SDS011;8977;50.902;4.314;2022-07-23T08:32:48;10.65;;;7.78;;
17714;SDS011;8977;50.902;4.314;2022-07-23T08:35:23;9.00;;;6.93;;
17714;SDS011;8977;50.902;4.314;2022-07-23T08:37:52;7.72;;;6.50;;
17714;SDS011;8977;50.902;4.314;2022-07-23T08:40:19;8.05;;;6.28;;
17714;SDS011;8977;50.902;4.314;2022-07-23T08:42:47;9.32;;;5.43;;
17714;SDS011;8977;50.902;4.314;2022-07-23T08:45:15;9.38;;;5.30;;
17714;SDS011;8977;50.902;4.314;2022-07-23T08:47:45;6.90;;;5.82;;
17714;SDS011;8977;50.902;4.314;2022-07-23T08:50:16;7.80;;;6.28;;
17714;SDS011;8977;50.902;4.314;2022-07-23T08:52:43;7.55;;;6.75;;
17714;SDS011;8977;50.902;4.314;2022-07-23T08:55:10;8.48;;;6.90;;
17714;SDS011;8977;50.902;4.314;2022-07-23T08:57:37;8.57;;;6.15;;
17714;SDS011;8977;50.902;4.314;2022-07-23T09:00:05;8.55;;;6.53;;
17714;SDS011;8977;50.902;4.314;2022-07-23T09:02:37;7.28;;;6.03;;
17714;SDS011;8977;50.902;4.314;2022-07-23T09:05:08;6.78;;;5.40;;
17714;SDS011;8977;50.902;4.314;2022-07-23T09:07:36;12.43;;;6.32;;
17714;SDS011;8977;50.902;4.314;2022-07-23T09:10:04;6.88;;;6.18;;
17714;SDS011;8977;50.902;4.314;2022-07-23T09:12:33;9.57;;;6.22;;
17714;SDS011;8977;50.902;4.314;2022-07-23T09:15:03;6.45;;;5.30;;
17714;SDS011;8977;50.902;4.314;2022-07-23T09:17:36;9.05;;;6.90;;
17714;SDS011;8977;50.902;4.314;2022-07-23T09:20:08;10.05;;;6.95;;
17714;SDS011;8977;50.902;4.314;2022-07-23T09:22:37;6.97;;;6.13;;
17714;SDS011;8977;50.902;4.314;2022-07-23T09:25:06;9.93;;;7.20;;
17714;SDS011;8977;50.902;4.314;2022-07-23T09:27:45;8.55;;;6.20;;
17714;SDS011;8977;50.902;4.314;2022-07-23T09:30:14;14.05;;;6.60;;
17714;SDS011;8977;50.902;4.314;2022-07-23T09:32:41;7.78;;;6.03;;
17714;SDS011;8977;50.902;4.314;2022-07-23T09:35:09;6.82;;;5.22;;
17714;SDS011;8977;50.902;4.314;2022-07-23T09:37:36;5.63;;;4.82;;
17714;SDS011;8977;50.902;4.314;2022-07-23T09:40:04;8.60;;;6.30;;
17714;SDS011;8977;50.902;4.314;2022-07-23T09:42:32;8.40;;;5.82;;
17714;SDS011;8977;50.902;4.314;2022-07-23T09:45:00;7.88;;;5.85;;
17714;SDS011;8977;50.902;4.314;2022-07-23T09:47:28;8.15;;;6.63;;
17714;SDS011;8977;50.902;4.314;2022-07-23T09:49:57;5.97;;;5.38;;
17714;SDS011;8977;50.902;4.314;2022-07-23T09:52:27;6.50;;;5.32;;
17714;SDS011;8977;50.902;4.314;2022-07-23T09:54:58;5.13;;;4.15;;
17714;SDS011;8977;50.902;4.314;2022-07-23T09:57:26;7.43;;;5.57;;
17714;SDS011;8977;50.902;4.314;2022-07-23T09:59:53;5.43;;;4.70;;
17714;SDS011;8977;50.902;4.314;2022-07-23T10:02:24;5.97;;;5.05;;
17714;SDS011;8977;50.902;4.314;2022-07-23T10:04:54;4.70;;;4.20;;
17714;SDS011;8977;50.902;4.314;2022-07-23T10:07:21;4.07;;;3.67;;
17714;SDS011;8977;50.902;4.314;2022-07-23T10:09:50;5.13;;;4.55;;
17714;SDS011;8977;50.902;4.314;2022-07-23T10:12:18;4.00;;;3.60;;
17714;SDS011;8977;50.902;4.314;2022-07-23T10:14:50;4.47;;;4.05;;
17714;SDS011;8977;50.902;4.314;2022-07-23T10:17:17;4.97;;;3.55;;
17714;SDS011;8977;50.902;4.314;2022-07-23T10:19:44;4.20;;;3.70;;
17714;SDS011;8977;50.902;4.314;2022-07-23T10:22:12;4.45;;;3.75;;
17714;SDS011;8977;50.902;4.314;2022-07-23T10:24:55;5.35;;;3.90;;
17714;SDS011;8977;50.902;4.314;2022-07-23T10:27:48;4.38;;;3.67;;
17714;SDS011;8977;50.902;4.314;2022-07-23T10:30:34;4.95;;;3.95;;
17714;SDS011;8977;50.902;4.314;2022-07-23T10:35:58;4.25;;;3.70;;
17714;SDS011;8977;50.902;4.314;2022-07-23T10:38:31;4.90;;;3.45;;
17714;SDS011;8977;50.902;4.314;2022-07-23T10:41:05;4.25;;;3.50;;
17714;SDS011;8977;50.902;4.314;2022-07-23T10:43:32;4.47;;;4.07;;
17714;SDS011;8977;50.902;4.314;2022-07-23T10:48:49;4.82;;;3.53;;
17714;SDS011;8977;50.902;4.314;2022-07-23T10:58:04;4.30;;;3.80;;
17714;SDS011;8977;50.902;4.314;2022-07-23T11:00:32;4.30;;;3.90;;
17714;SDS011;8977;50.902;4.314;2022-07-23T11:03:01;5.55;;;3.88;;
17714;SDS011;8977;50.902;4.314;2022-07-23T11:05:39;7.47;;;4.25;;
17714;SDS011;8977;50.902;4.314;2022-07-23T11:08:11;6.78;;;4.13;;
17714;SDS011;8977;50.902;4.314;2022-07-23T11:10:46;4.88;;;4.30;;
17714;SDS011;8977;50.902;4.314;2022-07-23T11:13:32;5.75;;;4.03;;
17714;SDS011;8977;50.902;4.314;2022-07-23T11:16:04;6.20;;;4.22;;
17714;SDS011;8977;50.902;4.314;2022-07-23T11:18:52;5.03;;;4.53;;
17714;SDS011;8977;50.902;4.314;2022-07-23T11:24:10;4.32;;;3.90;;
17714;SDS011;8977;50.902;4.314;2022-07-23T11:26:46;4.07;;;3.67;;
17714;SDS011;8977;50.902;4.314;2022-07-23T11:32:07;4.55;;;4.05;;
17714;SDS011;8977;50.902;4.314;2022-07-23T11:34:44;6.82;;;4.60;;
17714;SDS011;8977;50.902;4.314;2022-07-23T11:37:27;4.20;;;2.88;;
17714;SDS011;8977;50.902;4.314;2022-07-23T11:40:06;4.95;;;3.88;;
17714;SDS011;8977;50.902;4.314;2022-07-23T11:42:35;5.47;;;4.50;;
17714;SDS011;8977;50.902;4.314;2022-07-23T11:45:06;4.45;;;4.05;;
17714;SDS011;8977;50.902;4.314;2022-07-23T11:47:34;4.97;;;4.15;;
17714;SDS011;8977;50.902;4.314;2022-07-23T11:50:02;5.05;;;3.80;;
17714;SDS011;8977;50.902;4.314;2022-07-23T11:52:31;4.65;;;3.55;;
17714;SDS011;8977;50.902;4.314;2022-07-23T11:54:59;4.25;;;3.35;;
17714;SDS011;8977;50.902;4.314;2022-07-23T11:57:29;4.85;;;3.80;;
17714;SDS011;8977;50.902;4.314;2022-07-23T12:00:01;3.78;;;3.47;;
17714;SDS011;8977;50.902;4.314;2022-07-23T12:02:32;4.40;;;4.00;;
17714;SDS011;8977;50.902;4.314;2022-07-23T12:04:58;5.88;;;3.28;;
17714;SDS011;8977;50.902;4.314;2022-07-23T12:07:26;4.40;;;3.70;;
17714;SDS011;8977;50.902;4.314;2022-07-23T12:09:55;4.78;;;3.97;;
17714;SDS011;8977;50.902;4.314;2022-07-23T12:12:23;8.00;;;4.50;;
17714;SDS011;8977;50.902;4.314;2022-07-23T12:14:51;4.43;;;3.90;;
17714;SDS011;8977;50.902;4.314;2022-07-23T12:17:19;6.90;;;4.25;;
17714;SDS011;8977;50.902;4.314;2022-07-23T12:19:48;6.88;;;4.93;;
17714;SDS011;8977;50.902;4.314;2022-07-23T12:22:15;5.47;;;4.65;;
17714;SDS011;8977;50.902;4.314;2022-07-23T12:24:55;5.75;;;4.28;;
17714;SDS011;8977;50.902;4.314;2022-07-23T12:27:23;5.72;;;4.80;;
17714;SDS011;8977;50.902;4.314;2022-07-23T12:29:51;4.25;;;3.78;;
17714;SDS011;8977;50.902;4.314;2022-07-23T12:32:19;6.32;;;4.55;;
17714;SDS011;8977;50.902;4.314;2022-07-23T12:34:49;8.52;;;5.22;;
17714;SDS011;8977;50.902;4.314;2022-07-23T12:37:29;7.07;;;5.60;;
17714;SDS011;8977;50.902;4.314;2022-07-23T12:39:58;5.22;;;4.72;;
17714;SDS011;8977;50.902;4.314;2022-07-23T12:42:24;6.22;;;4.22;;
17714;SDS011;8977;50.902;4.314;2022-07-23T12:45:02;5.30;;;3.85;;
17714;SDS011;8977;50.902;4.314;2022-07-23T12:50:43;4.50;;;4.10;;
17714;SDS011;8977;50.902;4.314;2022-07-23T12:53:14;5.30;;;3.88;;
17714;SDS011;8977;50.902;4.314;2022-07-23T12:55:43;3.65;;;3.25;;
17714;SDS011;8977;50.902;4.314;2022-07-23T12:58:12;5.03;;;3.90;;
17714;SDS011;8977;50.902;4.314;2022-07-23T13:00:48;5.38;;;3.95;;
17714;SDS011;8977;50.902;4.314;2022-07-23T13:03:27;3.92;;;3.47;;
17714;SDS011;8977;50.902;4.314;2022-07-23T13:05:57;6.05;;;4.50;;
17714;SDS011;8977;50.902;4.314;2022-07-23T13:08:26;5.00;;;4.50;;
17714;SDS011;8977;50.902;4.314;2022-07-23T13:10:54;5.60;;;4.05;;
17714;SDS011;8977;50.902;4.314;2022-07-23T13:13:22;4.55;;;3.92;;
17714;SDS011;8977;50.902;4.314;2022-07-23T13:15:50;6.05;;;3.63;;
17714;SDS011;8977;50.902;4.314;2022-07-23T13:18:18;3.92;;;3.47;;
17714;SDS011;8977;50.902;4.314;2022-07-23T13:20:46;4.25;;;3.85;;
17714;SDS011;8977;50.902;4.314;2022-07-23T13:23:15;5.95;;;3.88;;
17714;SDS011;8977;50.902;4.314;2022-07-23T13:25:43;5.65;;;4.05;;
17714;SDS011;8977;50.902;4.314;2022-07-23T13:28:10;7.28;;;4.18;;
17714;SDS011;8977;50.902;4.314;2022-07-23T13:30:38;5.85;;;4.25;;
17714;SDS011;8977;50.902;4.314;2022-07-23T13:33:05;5.90;;;4.30;;
17714;SDS011;8977;50.902;4.314;2022-07-23T13:35:33;5.35;;;3.40;;
17714;SDS011;8977;50.902;4.314;2022-07-23T13:38:01;3.80;;;3.50;;
17714;SDS011;8977;50.902;4.314;2022-07-23T13:40:29;15.43;;;3.72;;
17714;SDS011;8977;50.902;4.314;2022-07-23T13:42:56;4.45;;;4.05;;
17714;SDS011;8977;50.902;4.314;2022-07-23T13:45:23;4.05;;;3.40;;
17714;SDS011;8977;50.902;4.314;2022-07-23T13:47:50;4.30;;;3.42;;
17714;SDS011;8977;50.902;4.314;2022-07-23T13:50:17;4.63;;;3.80;;
17714;SDS011;8977;50.902;4.314;2022-07-23T13:52:44;5.63;;;4.22;;
17714;SDS011;8977;50.902;4.314;2022-07-23T13:55:11;4.18;;;3.28;;
17714;SDS011;8977;50.902;4.314;2022-07-23T13:57:39;5.25;;;3.50;;
17714;SDS011;8977;50.902;4.314;2022-07-23T14:00:06;3.83;;;3.53;;
17714;SDS011;8977;50.902;4.314;2022-07-23T14:02:36;3.90;;;3.38;;
17714;SDS011;8977;50.902;4.314;2022-07-23T14:05:04;4.05;;;3.53;;
17714;SDS011;8977;50.902;4.314;2022-07-23T14:07:31;3.83;;;3.53;;
17714;SDS011;8977;50.902;4.314;2022-07-23T14:09:58;5.15;;;3.45;;
17714;SDS011;8977;50.902;4.314;2022-07-23T14:12:25;3.88;;;3.30;;
17714;SDS011;8977;50.902;4.314;2022-07-23T14:14:53;4.57;;;3.22;;
17714;SDS011;8977;50.902;4.314;2022-07-23T14:17:20;4.38;;;3.78;;
17714;SDS011;8977;50.902;4.314;2022-07-23T14:19:47;4.57;;;3.55;;
17714;SDS011;8977;50.902;4.314;2022-07-23T14:22:14;3.72;;;3.20;;
17714;SDS011;8977;50.902;4.314;2022-07-23T14:24:41;4.10;;;3.70;;
17714;SDS011;8977;50.902;4.314;2022-07-23T14:27:08;4.00;;;3.60;;
17714;SDS011;8977;50.902;4.314;2022-07-23T14:29:35;3.95;;;3.55;;
17714;SDS011;8977;50.902;4.314;2022-07-23T14:32:04;4.13;;;3.72;;
17714;SDS011;8977;50.902;4.314;2022-07-23T14:34:31;4.00;;;3.70;;
17714;SDS011;8977;50.902;4.314;2022-07-23T14:36:58;6.75;;;4.18;;
17714;SDS011;8977;50.902;4.314;2022-07-23T14:39:25;4.40;;;4.05;;
17714;SDS011;8977;50.902;4.314;2022-07-23T14:41:52;4.10;;;3.80;;
17714;SDS011;8977;50.902;4.314;2022-07-23T14:44:19;4.75;;;4.15;;
17714;SDS011;8977;50.902;4.314;2022-07-23T14:46:46;4.38;;;3.80;;
17714;SDS011;8977;50.902;4.314;2022-07-23T14:49:14;4.13;;;3.75;;
17714;SDS011;8977;50.902;4.314;2022-07-23T14:51:41;6.90;;;3.92;;
17714;SDS011;8977;50.902;4.314;2022-07-23T14:54:09;5.90;;;4.10;;
17714;SDS011;8977;50.902;4.314;2022-07-23T14:56:36;4.55;;;4.22;;
17714;SDS011;8977;50.902;4.314;2022-07-23T14:59:04;4.53;;;4.03;;
17714;SDS011;8977;50.902;4.314;2022-07-23T15:01:31;5.25;;;4.30;;
17714;SDS011;8977;50.902;4.314;2022-07-23T15:03:58;3.80;;;3.45;;
17714;SDS011;8977;50.902;4.314;2022-07-23T15:06:26;4.55;;;4.15;;
17714;SDS011;8977;50.902;4.314;2022-07-23T15:08:53;4.40;;;4.00;;
17714;SDS011;8977;50.902;4.314;2022-07-23T15:11:20;5.63;;;4.80;;
17714;SDS011;8977;50.902;4.314;2022-07-23T15:13:47;4.40;;;4.00;;
17714;SDS011;8977;50.902;4.314;2022-07-23T15:16:14;5.40;;;4.10;;